Time;durP1;ratioP1;P1;durP2;ratioP2;P2;SDS_P1;SDS_P2;PMS_P1;PMS_P2;Temp;Humidity;BMP_temperature;BMP_pressure;BME280_temperature;BME280_humidity;BME280_pressure;Samples;Min_cycle;Max_cycle;Signal;HPM_P1;HPM_P2
2021/03/02 00:01:12;;;;;;;23.25;12.63;;;5.60;99.90;;;;;;4155277;28;20034;-72
2021/03/02 00:03:12;;;;;;;27.80;13.88;;;5.60;99.90;;;;;;4158406;28;20037;-72
2021/03/02 00:05:14;;;;;;;24.48;12.82;;;5.60;99.90;;;;;;4159606;28;20103;-72
2021/03/02 00:07:16;;;;;;;20.75;11.65;;;5.60;99.90;;;;;;4156471;28;20030;-72
2021/03/02 00:09:16;;;;;;;24.73;12.53;;;5.60;99.90;;;;;;4141106;28;20058;-72
2021/03/02 00:11:17;;;;;;;22.10;13.27;;;5.60;99.90;;;;;;4158705;28;20064;-71
2021/03/02 00:13:18;;;;;;;23.58;12.73;;;5.60;99.90;;;;;;4158816;28;20913;-72
2021/03/02 00:15:19;;;;;;;23.98;13.05;;;5.60;99.90;;;;;;4156496;28;20514;-72
2021/03/02 00:17:27;;;;;;;21.67;12.32;;;5.60;99.90;;;;;;4140696;28;20042;-72
2021/03/02 00:19:44;;;;;;;24.13;11.50;;;5.60;99.90;;;;;;4147095;28;20029;-72
2021/03/02 00:21:57;;;;;;;22.75;12.98;;;5.60;99.90;;;;;;4155128;28;20417;-72
2021/03/02 00:24:03;;;;;;;24.30;13.05;;;5.60;99.90;;;;;;4157571;28;20113;-72
2021/03/02 00:26:06;;;;;;;24.13;12.50;;;5.60;99.90;;;;;;4156569;28;20048;-72
2021/03/02 00:28:08;;;;;;;26.20;12.90;;;5.60;99.90;;;;;;4145346;28;20041;-71
2021/03/02 00:30:09;;;;;;;24.10;12.50;;;5.60;99.90;;;;;;4146099;28;20543;-72
2021/03/02 00:32:10;;;;;;;26.25;12.93;;;5.60;99.90;;;;;;4144163;28;20030;-72
2021/03/02 00:34:11;;;;;;;23.45;12.45;;;5.60;99.90;;;;;;4155565;28;20556;-72
2021/03/02 00:36:12;;;;;;;24.38;11.93;;;5.60;99.90;;;;;;4158941;28;20061;-72
2021/03/02 00:38:13;;;;;;;22.80;12.63;;;5.60;99.90;;;;;;4158494;28;20393;-72
2021/03/02 00:40:17;;;;;;;25.67;12.85;;;5.60;99.90;;;;;;4154919;28;20026;-72
2021/03/02 00:42:17;;;;;;;25.08;12.32;;;5.60;99.90;;;;;;4152774;28;20038;-72
2021/03/02 00:44:18;;;;;;;23.35;12.88;;;5.50;99.90;;;;;;4155977;28;20042;-72
2021/03/02 00:46:20;;;;;;;22.60;12.77;;;5.50;99.90;;;;;;4153837;28;20485;-72
2021/03/02 00:48:20;;;;;;;21.75;11.43;;;5.50;99.90;;;;;;4155819;28;20029;-72
2021/03/02 00:50:23;;;;;;;23.55;11.57;;;5.60;99.90;;;;;;4158266;28;20037;-72
2021/03/02 00:52:23;;;;;;;22.30;12.40;;;5.60;99.90;;;;;;4157865;28;20697;-72
2021/03/02 00:54:24;;;;;;;21.60;11.93;;;5.60;99.90;;;;;;4146209;28;20034;-72
2021/03/02 00:56:24;;;;;;;19.88;10.50;;;5.60;99.90;;;;;;4137711;28;20034;-72
2021/03/02 00:58:25;;;;;;;21.15;11.48;;;5.60;99.90;;;;;;4151637;28;20042;-72
2021/03/02 01:00:25;;;;;;;22.17;11.80;;;5.60;99.90;;;;;;4151751;28;20036;-72
2021/03/02 01:02:27;;;;;;;24.00;11.32;;;5.60;99.90;;;;;;4152681;28;20075;-72
2021/03/02 01:04:27;;;;;;;19.80;10.70;;;5.60;99.90;;;;;;4146222;28;20116;-72
2021/03/02 01:06:28;;;;;;;19.88;11.13;;;5.60;99.90;;;;;;4150348;28;20076;-72
2021/03/02 01:08:28;;;;;;;20.05;10.93;;;5.60;99.90;;;;;;4155772;28;20097;-72
2021/03/02 01:10:30;;;;;;;18.98;10.57;;;5.60;99.90;;;;;;4150743;28;20034;-72
2021/03/02 01:12:30;;;;;;;20.80;11.07;;;5.60;99.90;;;;;;4154256;28;20104;-72
2021/03/02 01:14:31;;;;;;;21.77;11.07;;;5.70;99.90;;;;;;4156970;28;20041;-71
2021/03/02 01:16:32;;;;;;;18.65;10.23;;;5.70;99.90;;;;;;4158880;28;20121;-72
2021/03/02 01:18:33;;;;;;;18.80;10.60;;;5.70;99.90;;;;;;4151165;28;20026;-71
2021/03/02 01:20:33;;;;;;;18.02;10.57;;;5.70;99.90;;;;;;4148738;28;20480;-71
2021/03/02 01:22:35;;;;;;;19.33;11.27;;;5.70;99.90;;;;;;4158187;28;20121;-72
2021/03/02 01:24:35;;;;;;;20.65;11.75;;;5.70;99.90;;;;;;4157718;28;20042;-72
2021/03/02 01:26:36;;;;;;;20.45;11.63;;;5.70;99.90;;;;;;4132478;28;20037;-72
2021/03/02 01:28:37;;;;;;;18.33;11.10;;;5.70;99.90;;;;;;4154179;28;20092;-72
2021/03/02 01:30:38;;;;;;;17.80;10.50;;;5.70;99.90;;;;;;4156496;28;20038;-72
2021/03/02 01:32:39;;;;;;;17.80;10.20;;;5.70;99.90;;;;;;4156775;28;20035;-72
2021/03/02 01:34:40;;;;;;;17.40;10.40;;;5.70;99.90;;;;;;4156014;28;20529;-72
2021/03/02 01:36:40;;;;;;;16.33;9.52;;;5.70;99.90;;;;;;4158225;28;20068;-72
2021/03/02 01:38:41;;;;;;;19.73;10.85;;;5.70;99.90;;;;;;4156706;28;20148;-72
2021/03/02 01:40:42;;;;;;;21.48;10.98;;;5.70;99.90;;;;;;4161771;28;20095;-72
2021/03/02 01:42:43;;;;;;;20.38;11.07;;;5.70;99.90;;;;;;4160530;28;20041;-72
2021/03/02 01:44:44;;;;;;;19.85;11.38;;;5.70;99.90;;;;;;4160314;28;20551;-72
2021/03/02 01:46:48;;;;;;;18.52;10.98;;;5.70;99.90;;;;;;4160181;28;20030;-72
2021/03/02 01:48:48;;;;;;;17.60;10.52;;;5.70;99.90;;;;;;4155805;28;20033;-72
2021/03/02 01:50:49;;;;;;;20.35;10.25;;;5.70;99.90;;;;;;4159083;28;20335;-72
2021/03/02 01:52:50;;;;;;;18.15;10.27;;;5.70;99.90;;;;;;4157374;28;20044;-72
2021/03/02 01:54:51;;;;;;;18.33;10.32;;;5.70;99.90;;;;;;4159547;28;20056;-72
2021/03/02 01:56:52;;;;;;;16.83;9.75;;;5.70;99.90;;;;;;4159334;28;20025;-72
2021/03/02 01:58:52;;;;;;;21.90;11.15;;;5.70;99.90;;;;;;4160390;28;20231;-72
2021/03/02 02:01:04;;;;;;;18.50;11.20;;;5.60;99.90;;;;;;4159490;28;20025;-72
2021/03/02 02:03:28;;;;;;;17.98;10.35;;;5.60;99.90;;;;;;4158667;28;20553;-72
2021/03/02 02:05:33;;;;;;;16.95;9.55;;;5.50;99.90;;;;;;4159502;28;20044;-72
2021/03/02 02:07:40;;;;;;;19.50;10.48;;;5.50;99.90;;;;;;4158452;28;20168;-72
2021/03/02 02:10:04;;;;;;;19.92;10.40;;;5.50;99.90;;;;;;4157968;28;20026;-72
2021/03/02 02:12:20;;;;;;;18.83;10.27;;;5.40;99.90;;;;;;4150615;28;20038;-72
2021/03/02 02:14:41;;;;;;;21.27;11.35;;;5.40;99.90;;;;;;4155442;28;20478;-72
2021/03/02 02:16:45;;;;;;;20.60;10.18;;;5.40;99.90;;;;;;4159814;28;20033;-72
2021/03/02 02:18:48;;;;;;;19.63;10.60;;;5.40;99.90;;;;;;4159411;28;20046;-72
2021/03/02 02:21:09;;;;;;;18.77;10.35;;;5.40;99.90;;;;;;4158962;28;20041;-72
2021/03/02 02:23:10;;;;;;;19.40;10.80;;;5.40;99.90;;;;;;4151730;28;20088;-72
2021/03/02 02:25:39;;;;;;;20.17;10.50;;;5.40;99.90;;;;;;4159324;28;20037;-72
2021/03/02 02:27:41;;;;;;;22.48;10.88;;;5.40;99.90;;;;;;4154687;28;20032;-72
2021/03/02 02:29:42;;;;;;;16.48;9.70;;;5.40;99.90;;;;;;4158763;28;20037;-72
2021/03/02 02:31:45;;;;;;;18.25;10.73;;;5.40;99.90;;;;;;4157007;28;20049;-72
2021/03/02 02:33:50;;;;;;;18.45;10.88;;;5.30;99.90;;;;;;4159022;28;20029;-72
2021/03/02 02:35:52;;;;;;;16.02;9.82;;;5.30;99.90;;;;;;4158918;28;20033;-72
2021/03/02 02:37:55;;;;;;;18.08;10.60;;;5.30;99.90;;;;;;4154687;28;20037;-72
2021/03/02 02:39:56;;;;;;;18.50;10.88;;;5.30;99.90;;;;;;4142220;28;20351;-72
2021/03/02 02:41:57;;;;;;;18.70;10.15;;;5.20;99.90;;;;;;4159970;28;20638;-72
2021/03/02 02:43:59;;;;;;;18.08;9.65;;;5.20;99.90;;;;;;4166410;28;20039;-72
2021/03/02 02:45:59;;;;;;;17.73;9.52;;;5.20;99.90;;;;;;4154290;28;20084;-72
2021/03/02 02:48:00;;;;;;;18.50;10.45;;;5.20;99.90;;;;;;4158910;28;20050;-72
2021/03/02 02:50:03;;;;;;;19.92;10.70;;;5.20;99.90;;;;;;4158508;28;20112;-72
2021/03/02 02:52:05;;;;;;;17.38;9.88;;;5.20;99.90;;;;;;4153621;28;20064;-72
2021/03/02 02:54:07;;;;;;;17.88;9.40;;;5.20;99.90;;;;;;4158776;28;20052;-72
2021/03/02 02:56:09;;;;;;;18.15;10.57;;;5.20;99.90;;;;;;4158639;28;20056;-72
2021/03/02 02:58:11;;;;;;;20.63;10.60;;;5.20;99.90;;;;;;4156702;28;20045;-72
2021/03/02 03:00:13;;;;;;;17.38;9.90;;;5.20;99.90;;;;;;4157118;28;20068;-72
2021/03/02 03:02:20;;;;;;;17.35;9.95;;;5.20;99.90;;;;;;4159838;28;20465;-72
2021/03/02 03:04:26;;;;;;;18.10;10.18;;;5.20;99.90;;;;;;4158529;28;20033;-72
2021/03/02 03:06:30;;;;;;;18.02;10.38;;;5.20;99.90;;;;;;4160700;28;20064;-72
2021/03/02 03:08:33;;;;;;;18.25;9.57;;;5.20;99.90;;;;;;4160556;28;20397;-72
2021/03/02 03:10:35;;;;;;;16.83;9.80;;;5.20;99.90;;;;;;4159051;28;20623;-72
2021/03/02 03:12:43;;;;;;;18.35;9.57;;;5.20;99.90;;;;;;4160456;28;20144;-71
2021/03/02 03:14:52;;;;;;;16.60;10.07;;;5.10;99.90;;;;;;4157486;28;20101;-72
2021/03/02 03:16:54;;;;;;;19.15;10.18;;;5.10;99.90;;;;;;4184340;28;20049;-72
2021/03/02 03:18:58;;;;;;;20.63;10.30;;;5.10;99.90;;;;;;4181689;28;20033;-72
2021/03/02 03:21:01;;;;;;;20.23;10.98;;;5.10;99.90;;;;;;4159593;28;20048;-72
2021/03/02 03:23:04;;;;;;;21.38;10.50;;;5.10;99.90;;;;;;4158931;28;20034;-72
2021/03/02 03:25:05;;;;;;;;;;;5.10;99.90;;;;;;4160495;28;20060;-72
2021/03/02 03:27:06;;;;;;;20.95;10.57;;;5.10;99.90;;;;;;4157954;28;20252;-72
2021/03/02 03:29:08;;;;;;;19.10;10.68;;;5.10;99.90;;;;;;4158083;28;20091;-72
2021/03/02 03:31:11;;;;;;;22.48;11.10;;;5.10;99.90;;;;;;4159970;28;20053;-72
2021/03/02 03:33:14;;;;;;;18.60;9.40;;;5.00;99.90;;;;;;4158137;28;20037;-72
2021/03/02 03:35:15;;;;;;;16.63;9.27;;;5.00;99.90;;;;;;4158208;28;20043;-72
2021/03/02 03:37:16;;;;;;;16.67;9.82;;;5.00;99.90;;;;;;4157202;28;20037;-71
2021/03/02 03:39:17;;;;;;;14.23;8.43;;;4.90;99.90;;;;;;4151310;28;20033;-72
2021/03/02 03:41:18;;;;;;;15.10;8.98;;;4.90;99.90;;;;;;4158151;28;20029;-72
2021/03/02 03:43:18;;;;;;;18.65;9.85;;;4.90;99.90;;;;;;4159573;28;20509;-72
2021/03/02 03:45:19;;;;;;;19.88;9.15;;;4.90;99.90;;;;;;4158206;28;20076;-72
2021/03/02 03:47:19;;;;;;;19.67;10.13;;;4.90;99.90;;;;;;4156016;28;20039;-72
2021/03/02 03:49:20;;;;;;;16.80;9.88;;;4.80;99.90;;;;;;4159441;28;20598;-72
2021/03/02 03:51:26;;;;;;;21.08;12.25;;;4.80;99.90;;;;;;4155591;28;20038;-71
2021/03/02 03:53:31;;;;;;;19.92;11.10;;;4.80;99.90;;;;;;4151633;28;20196;-72
2021/03/02 03:55:44;;;;;;;19.17;10.82;;;4.80;99.90;;;;;;4159446;28;20079;-73
2021/03/02 03:57:45;;;;;;;18.10;10.13;;;4.80;99.90;;;;;;4156670;28;20099;-72
2021/03/02 03:59:47;;;;;;;20.00;10.68;;;4.80;99.90;;;;;;4148336;28;20038;-72
2021/03/02 04:01:48;;;;;;;20.70;11.23;;;4.70;99.90;;;;;;4153580;28;20038;-72
2021/03/02 04:03:50;;;;;;;19.50;10.55;;;4.60;99.90;;;;;;4154604;28;20068;-72
2021/03/02 04:05:51;;;;;;;20.23;10.52;;;4.60;99.90;;;;;;4159245;28;20037;-72
2021/03/02 04:08:05;;;;;;;22.08;11.85;;;4.60;99.90;;;;;;4171086;27;20357;-71
2021/03/02 04:10:07;;;;;;;17.40;10.10;;;4.60;99.90;;;;;;4173073;28;20571;-71
2021/03/02 04:12:11;;;;;;;22.05;11.27;;;4.60;99.90;;;;;;4169631;28;20033;-71
2021/03/02 04:14:12;;;;;;;20.30;10.90;;;4.60;99.90;;;;;;4168342;28;20033;-71
2021/03/02 04:16:13;;;;;;;21.30;10.55;;;4.60;99.90;;;;;;4161973;28;20116;-71
2021/03/02 04:18:16;;;;;;;17.20;10.07;;;4.60;99.90;;;;;;4163857;28;20354;-71
2021/03/02 04:20:18;;;;;;;20.30;11.27;;;4.60;99.90;;;;;;4172137;28;20095;-71
2021/03/02 04:22:19;;;;;;;16.45;9.32;;;4.60;99.90;;;;;;4169929;28;20080;-71
2021/03/02 04:24:19;;;;;;;17.25;9.75;;;4.60;99.90;;;;;;4170022;28;20652;-71
2021/03/02 04:26:20;;;;;;;20.90;11.00;;;4.60;99.90;;;;;;4164589;28;20025;-71
2021/03/02 04:28:21;;;;;;;21.48;10.85;;;4.60;99.90;;;;;;4171990;28;20044;-71
2021/03/02 04:30:22;;;;;;;19.38;10.73;;;4.60;99.90;;;;;;4170730;28;20045;-71
2021/03/02 04:32:22;;;;;;;17.85;10.63;;;4.60;99.90;;;;;;4171217;28;20056;-71
2021/03/02 04:34:23;;;;;;;20.02;10.73;;;4.60;99.90;;;;;;4171252;28;20037;-71
2021/03/02 04:36:23;;;;;;;18.02;10.15;;;4.60;99.90;;;;;;4167915;28;20045;-71
2021/03/02 04:38:24;;;;;;;21.48;10.75;;;4.60;99.90;;;;;;4171317;28;20065;-71
2021/03/02 04:40:25;;;;;;;20.67;11.45;;;4.60;99.90;;;;;;4172710;28;20032;-71
2021/03/02 04:42:28;;;;;;;20.73;11.88;;;4.60;99.90;;;;;;4171928;28;20432;-71
2021/03/02 04:44:29;;;;;;;21.33;11.63;;;4.50;99.90;;;;;;4171656;28;20079;-71
2021/03/02 04:46:30;;;;;;;23.15;12.88;;;4.40;99.90;;;;;;4168270;28;20057;-71
2021/03/02 04:48:30;;;;;;;23.80;12.65;;;4.30;99.90;;;;;;4169042;28;20025;-71
2021/03/02 04:50:31;;;;;;;28.13;13.43;;;4.30;99.90;;;;;;4170329;28;20031;-71
2021/03/02 04:52:32;;;;;;;26.48;13.80;;;4.20;99.90;;;;;;4170237;28;20057;-71
2021/03/02 04:54:33;;;;;;;24.98;13.35;;;4.20;99.90;;;;;;4172056;28;20140;-71
2021/03/02 04:56:33;;;;;;;23.00;12.82;;;4.20;99.90;;;;;;4170777;28;20568;-71
2021/03/02 04:58:34;;;;;;;20.73;11.68;;;4.20;99.90;;;;;;4172115;28;20037;-71
2021/03/02 05:00:34;;;;;;;22.27;12.52;;;4.20;99.90;;;;;;4153848;28;20620;-71
2021/03/02 05:02:35;;;;;;;22.10;13.18;;;4.30;99.90;;;;;;4168629;28;20041;-71
2021/03/02 05:04:36;;;;;;;23.35;12.18;;;4.30;99.90;;;;;;4164433;28;20045;-71
2021/03/02 05:06:39;;;;;;;20.35;12.27;;;4.40;99.90;;;;;;4168014;28;20033;-71
2021/03/02 05:08:39;;;;;;;22.13;12.20;;;4.40;99.90;;;;;;4168553;28;20056;-71
2021/03/02 05:10:40;;;;;;;22.92;12.63;;;4.40;99.90;;;;;;4165196;28;20094;-71
2021/03/02 05:12:40;;;;;;;22.30;12.55;;;4.50;99.90;;;;;;4153325;28;20030;-71
2021/03/02 05:14:41;;;;;;;22.50;12.18;;;4.50;99.90;;;;;;4170154;28;20040;-71
2021/03/02 05:16:42;;;;;;;23.30;12.10;;;4.50;99.90;;;;;;4169922;28;20064;-71
2021/03/02 05:18:43;;;;;;;22.20;11.70;;;4.50;99.90;;;;;;4165173;28;20045;-71
2021/03/02 05:20:44;;;;;;;24.88;13.05;;;4.50;99.90;;;;;;4145146;28;20034;-71
2021/03/02 05:22:45;;;;;;;19.85;11.88;;;4.50;99.90;;;;;;4157962;28;20517;-71
2021/03/02 05:24:46;;;;;;;23.83;13.25;;;4.60;99.90;;;;;;4159611;28;20627;-71
2021/03/02 05:26:46;;;;;;;20.33;11.32;;;4.60;99.90;;;;;;4158931;28;20037;-71
2021/03/02 05:28:50;;;;;;;23.23;13.02;;;4.60;99.90;;;;;;4156598;28;20033;-71
2021/03/02 05:30:52;;;;;;;22.92;12.52;;;4.60;99.90;;;;;;4160680;28;20030;-71
2021/03/02 05:32:53;;;;;;;21.23;12.48;;;4.60;99.90;;;;;;4166091;28;20041;-71
2021/03/02 05:34:54;;;;;;;18.90;11.25;;;4.60;99.90;;;;;;4158987;28;20030;-71
2021/03/02 05:36:55;;;;;;;20.10;11.93;;;4.50;99.90;;;;;;4159655;28;20638;-71
2021/03/02 05:38:57;;;;;;;18.13;10.98;;;4.50;99.90;;;;;;4158785;28;20045;-71
2021/03/02 05:40:58;;;;;;;18.77;11.07;;;4.50;99.90;;;;;;4158259;28;20174;-71
2021/03/02 05:42:59;;;;;;;18.95;11.45;;;4.50;99.90;;;;;;4160517;28;20041;-71
2021/03/02 05:45:00;;;;;;;19.45;10.90;;;4.50;99.90;;;;;;4159855;28;20068;-71
2021/03/02 05:47:02;;;;;;;19.92;10.88;;;4.50;99.90;;;;;;4160306;28;20477;-71
2021/03/02 05:49:13;;;;;;;21.45;11.18;;;4.50;99.90;;;;;;4160214;28;20037;-71
2021/03/02 05:51:16;;;;;;;20.30;11.18;;;4.50;99.90;;;;;;4159341;28;20086;-71
2021/03/02 05:53:16;;;;;;;20.35;11.45;;;4.50;99.90;;;;;;4160030;28;20366;-71
2021/03/02 05:55:17;;;;;;;18.10;10.40;;;4.50;99.90;;;;;;4158738;28;20026;-71
2021/03/02 05:57:18;;;;;;;25.83;11.35;;;4.50;99.90;;;;;;4159506;28;20030;-71
2021/03/02 05:59:19;;;;;;;20.83;11.45;;;4.50;99.90;;;;;;4156027;28;20036;-71
2021/03/02 06:01:20;;;;;;;19.15;11.38;;;4.50;99.90;;;;;;4159890;28;20049;-71
2021/03/02 06:03:20;;;;;;;19.02;10.40;;;4.60;99.90;;;;;;4153848;28;20034;-71
2021/03/02 06:05:21;;;;;;;22.35;11.80;;;4.60;99.90;;;;;;4158607;28;20033;-71
2021/03/02 06:07:23;;;;;;;23.17;11.93;;;4.60;99.90;;;;;;4159768;28;20444;-71
2021/03/02 06:09:24;;;;;;;19.10;11.32;;;4.60;99.90;;;;;;4158307;28;20050;-71
2021/03/02 06:11:30;;;;;;;20.48;11.30;;;4.60;99.90;;;;;;4158390;28;20032;-71
2021/03/02 06:13:31;;;;;;;22.08;11.82;;;4.60;99.90;;;;;;4158293;28;20268;-71
2021/03/02 06:15:31;;;;;;;20.15;11.93;;;4.60;99.90;;;;;;4159837;28;20180;-71
2021/03/02 06:17:32;;;;;;;20.92;11.75;;;4.60;99.90;;;;;;4158267;28;20049;-71
2021/03/02 06:19:45;;;;;;;24.20;12.10;;;4.60;99.90;;;;;;4158585;28;20044;-71
2021/03/02 06:21:45;;;;;;;19.88;11.55;;;4.60;99.90;;;;;;4152803;28;20078;-71
2021/03/02 06:23:53;;;;;;;23.00;12.43;;;4.60;99.90;;;;;;4149956;28;20413;-71
2021/03/02 06:26:08;;;;;;;21.27;12.00;;;4.60;99.90;;;;;;4155000;28;20045;-71
2021/03/02 06:28:08;;;;;;;19.63;10.95;;;4.60;99.90;;;;;;4148571;28;20470;-71
2021/03/02 06:30:13;;;;;;;18.48;10.88;;;4.60;99.90;;;;;;4155627;28;20075;-72
2021/03/02 06:32:14;;;;;;;17.90;10.90;;;4.50;99.90;;;;;;4151367;28;20038;-72
2021/03/02 06:34:17;;;;;;;20.23;11.88;;;4.50;99.90;;;;;;4149870;28;20033;-71
2021/03/02 06:36:18;;;;;;;;;;;4.50;99.90;;;;;;4130968;28;20044;-72
2021/03/02 06:38:38;;;;;;;17.13;10.85;;;4.50;99.90;;;;;;4139871;28;20051;-72
2021/03/02 06:40:46;;;;;;;20.35;11.23;;;4.50;99.90;;;;;;4155014;28;20041;-72
2021/03/02 06:42:47;;;;;;;18.27;10.75;;;4.50;99.90;;;;;;4154869;28;20034;-72
2021/03/02 06:44:52;;;;;;;20.73;11.95;;;4.50;99.90;;;;;;4135635;28;20532;-72
2021/03/02 06:46:52;;;;;;;17.58;10.70;;;4.50;99.90;;;;;;4156967;28;20033;-73
2021/03/02 06:48:56;;;;;;;22.45;11.93;;;4.50;99.90;;;;;;4155828;28;20044;-72
2021/03/02 06:50:57;;;;;;;21.27;11.88;;;4.40;99.90;;;;;;4155541;28;20502;-72
2021/03/02 06:53:11;;;;;;;20.83;11.35;;;4.50;99.90;;;;;;4156377;28;20296;-72
2021/03/02 06:55:14;;;;;;;19.52;10.77;;;4.40;99.90;;;;;;4154341;28;20103;-72
2021/03/02 06:57:23;;;;;;;17.98;11.23;;;4.40;99.90;;;;;;4153035;28;20119;-72
2021/03/02 06:59:24;;;;;;;19.75;10.70;;;4.40;99.90;;;;;;4154436;28;20041;-72
2021/03/02 07:01:38;;;;;;;18.50;10.50;;;4.40;99.90;;;;;;4155765;28;20068;-72
2021/03/02 07:03:38;;;;;;;19.77;11.52;;;4.40;99.90;;;;;;4157891;28;20079;-72
2021/03/02 07:05:46;;;;;;;22.88;11.13;;;4.40;99.90;;;;;;4153992;28;20486;-72
2021/03/02 07:07:54;;;;;;;20.83;11.73;;;4.40;99.90;;;;;;4157014;28;20113;-72
2021/03/02 07:09:55;;;;;;;19.55;11.43;;;4.40;99.90;;;;;;4156956;28;20041;-72
2021/03/02 07:11:58;;;;;;;21.73;12.07;;;4.40;99.90;;;;;;4154652;28;20029;-72
2021/03/02 07:14:00;;;;;;;22.02;12.73;;;4.30;99.90;;;;;;4139754;28;20057;-72
2021/03/02 07:16:02;;;;;;;22.73;12.68;;;4.30;99.90;;;;;;4154105;28;20037;-72
2021/03/02 07:18:06;;;;;;;21.58;12.73;;;4.30;99.90;;;;;;4154820;28;20033;-72
2021/03/02 07:20:09;;;;;;;20.80;12.55;;;4.30;99.90;;;;;;4154439;28;20033;-74
2021/03/02 07:22:11;;;;;;;20.55;12.38;;;4.30;99.90;;;;;;4156485;28;20752;-73
2021/03/02 07:24:15;;;;;;;20.98;11.98;;;4.30;99.90;;;;;;4138864;28;20040;-75
2021/03/02 07:26:17;;;;;;;19.40;11.75;;;4.30;99.90;;;;;;4153425;28;20038;-72
2021/03/02 07:28:23;;;;;;;22.23;13.00;;;4.40;99.90;;;;;;4153205;28;20363;-73
2021/03/02 07:30:24;;;;;;;20.45;12.30;;;4.40;99.90;;;;;;4147184;28;20037;-73
2021/03/02 07:32:28;;;;;;;20.80;12.40;;;4.40;99.90;;;;;;4150276;28;20104;-73
2021/03/02 07:34:29;;;;;;;20.77;11.98;;;4.40;99.90;;;;;;4152057;28;20037;-73
2021/03/02 07:36:41;;;;;;;21.42;12.52;;;4.50;99.90;;;;;;4146763;28;20793;-74
2021/03/02 07:38:42;;;;;;;21.07;12.43;;;4.50;99.90;;;;;;4146808;28;20038;-74
2021/03/02 07:40:50;;;;;;;21.83;11.65;;;4.60;99.90;;;;;;4145033;28;20095;-73
2021/03/02 07:42:51;;;;;;;19.63;11.65;;;4.60;99.90;;;;;;4141079;28;20033;-74
2021/03/02 07:45:05;;;;;;;20.08;11.85;;;4.60;99.90;;;;;;4144933;28;20278;-73
2021/03/02 07:47:06;;;;;;;18.70;10.88;;;4.70;99.90;;;;;;4145173;28;20065;-73
2021/03/02 07:49:24;;;;;;;19.88;11.55;;;4.70;99.90;;;;;;4142596;28;20041;-74
2021/03/02 07:51:25;;;;;;;19.70;11.48;;;4.80;99.90;;;;;;4144757;28;20052;-74
2021/03/02 07:53:25;;;;;;;18.80;10.93;;;4.80;99.90;;;;;;4145157;28;20068;-74
2021/03/02 07:55:26;;;;;;;20.77;11.63;;;4.90;99.90;;;;;;4146510;28;20033;-74
2021/03/02 07:57:27;;;;;;;20.90;11.50;;;5.10;99.90;;;;;;4147004;28;20030;-74
2021/03/02 07:59:27;;;;;;;18.17;11.05;;;5.20;99.90;;;;;;4144573;28;20026;-74
2021/03/02 08:01:28;;;;;;;20.70;12.48;;;5.30;99.90;;;;;;4141728;28;20100;-74
2021/03/02 08:03:30;;;;;;;19.45;11.85;;;5.50;99.90;;;;;;4137134;28;20043;-74
2021/03/02 08:05:30;;;;;;;21.00;12.48;;;5.70;99.90;;;;;;4147060;28;20049;-74
2021/03/02 08:07:31;;;;;;;19.45;11.35;;;5.90;99.90;;;;;;4161099;28;20615;-74
2021/03/02 08:09:32;;;;;;;22.10;12.65;;;6.10;99.90;;;;;;4147065;28;20041;-74
2021/03/02 08:11:34;;;;;;;22.15;12.10;;;6.30;99.90;;;;;;4151959;28;20042;-74
2021/03/02 08:13:42;;;;;;;22.00;12.25;;;6.40;99.90;;;;;;4145203;28;20033;-74
2021/03/02 08:15:43;;;;;;;24.60;13.50;;;6.60;99.90;;;;;;4130547;28;20050;-74
2021/03/02 08:17:44;;;;;;;21.35;13.02;;;6.80;99.90;;;;;;4148619;28;20045;-74
2021/03/02 08:19:58;;;;;;;23.60;13.27;;;6.90;99.90;;;;;;4129103;28;20112;-74
2021/03/02 08:21:59;;;;;;;22.42;12.43;;;7.10;99.90;;;;;;4154484;28;20022;-74
2021/03/02 08:24:01;;;;;;;22.85;13.52;;;7.30;99.90;;;;;;4147391;28;20095;-74
2021/03/02 08:26:20;;;;;;;21.80;12.40;;;7.50;99.90;;;;;;4146173;28;20048;-74
2021/03/02 08:28:20;;;;;;;21.55;12.68;;;7.80;99.90;;;;;;4145865;28;20148;-74
2021/03/02 08:30:28;;;;;;;25.85;13.50;;;8.10;99.90;;;;;;4149058;28;20068;-74
2021/03/02 08:32:31;;;;;;;21.67;12.60;;;8.40;99.90;;;;;;4144790;28;20120;-74
2021/03/02 08:34:32;;;;;;;20.15;11.48;;;8.60;99.90;;;;;;4144187;28;20060;-75
2021/03/02 08:36:34;;;;;;;20.17;11.60;;;8.90;99.90;;;;;;4151795;28;20112;-71
2021/03/02 08:38:36;;;;;;;19.80;11.82;;;9.30;99.90;;;;;;4138063;28;20037;-71
2021/03/02 08:40:36;;;;;;;19.95;11.98;;;9.60;99.90;;;;;;4154004;28;20605;-72
2021/03/02 08:42:38;;;;;;;22.35;11.45;;;9.90;99.90;;;;;;4152906;28;20057;-71
2021/03/02 08:44:38;;;;;;;17.50;11.48;;;10.20;99.90;;;;;;4147872;28;20025;-71
2021/03/02 08:46:39;;;;;;;15.73;10.15;;;10.40;99.90;;;;;;4153007;28;20049;-71
2021/03/02 08:48:39;;;;;;;19.02;10.65;;;10.60;99.90;;;;;;4152727;28;20093;-71
2021/03/02 08:50:40;;;;;;;13.52;8.90;;;10.90;99.90;;;;;;4152214;28;20042;-71
2021/03/02 08:52:41;;;;;;;13.07;8.60;;;11.00;99.90;;;;;;4148655;28;20033;-71
2021/03/02 08:54:49;;;;;;;17.98;10.27;;;11.10;99.90;;;;;;4154129;28;20040;-71
2021/03/02 08:56:59;;;;;;;17.20;9.80;;;11.20;99.90;;;;;;4157483;28;20582;-71
2021/03/02 08:59:09;;;;;;;14.20;9.45;;;11.20;99.90;;;;;;4156300;28;20045;-71
2021/03/02 09:01:14;;;;;;;17.20;9.52;;;11.20;99.90;;;;;;4155192;28;20053;-71
2021/03/02 09:03:21;;;;;;;16.15;9.80;;;11.20;99.90;;;;;;4151144;28;20034;-71
2021/03/02 09:05:22;;;;;;;15.75;9.25;;;11.20;99.90;;;;;;4155976;28;20473;-71
2021/03/02 09:07:23;;;;;;;16.33;9.18;;;11.20;99.90;;;;;;4152198;28;20048;-71
2021/03/02 09:09:25;;;;;;;15.00;9.40;;;11.30;99.90;;;;;;4159690;28;20495;-71
2021/03/02 09:11:37;;;;;;;14.57;9.10;;;11.40;99.90;;;;;;4157768;28;20038;-68
2021/03/02 09:13:39;;;;;;;18.65;8.57;;;11.50;99.90;;;;;;4158910;28;20037;-68
2021/03/02 09:15:43;;;;;;;15.13;8.93;;;11.70;99.90;;;;;;4157654;28;20100;-68
2021/03/02 09:17:44;;;;;;;17.23;9.52;;;11.80;99.90;;;;;;4157163;28;20033;-68
2021/03/02 09:19:44;;;;;;;16.23;8.07;;;12.00;99.90;;;;;;4159976;28;20037;-68
2021/03/02 09:21:59;;;;;;;13.10;8.35;;;12.20;99.90;;;;;;4152160;28;20061;-68
2021/03/02 09:24:01;;;;;;;15.80;8.80;;;12.30;99.90;;;;;;4154489;28;20042;-68
2021/03/02 09:26:02;;;;;;;13.68;8.05;;;12.50;99.90;;;;;;4149945;28;20099;-68
2021/03/02 09:28:16;;;;;;;14.32;8.23;;;12.50;99.90;;;;;;4154259;28;20127;-68
2021/03/02 09:30:18;;;;;;;13.75;8.15;;;12.70;99.90;;;;;;4181415;28;20099;-68
2021/03/02 09:32:27;;;;;;;15.80;8.77;;;12.80;99.90;;;;;;4151955;28;20351;-71
2021/03/02 09:34:33;;;;;;;12.98;8.15;;;12.80;99.90;;;;;;4136576;28;20026;-70
2021/03/02 09:36:34;;;;;;;14.43;8.23;;;12.90;99.90;;;;;;4151784;28;20033;-70
2021/03/02 09:38:35;;;;;;;13.73;8.68;;;12.90;99.90;;;;;;4159508;28;20037;-71
2021/03/02 09:40:42;;;;;;;15.10;8.90;;;12.90;99.90;;;;;;4154382;28;20394;-70
2021/03/02 09:42:53;;;;;;;15.35;9.68;;;13.00;99.90;;;;;;4151156;28;20038;-70
2021/03/02 09:44:56;;;;;;;16.33;9.77;;;13.00;99.90;;;;;;4155038;28;20484;-70
2021/03/02 09:47:03;;;;;;;14.43;8.15;;;13.10;99.90;;;;;;4159208;28;20053;-70
2021/03/02 09:49:04;;;;;;;14.68;8.85;;;13.10;99.90;;;;;;4154355;28;20087;-70
2021/03/02 09:51:05;;;;;;;14.13;8.38;;;13.20;99.90;;;;;;4154470;28;20038;-70
2021/03/02 09:53:13;;;;;;;14.27;8.95;;;13.20;99.90;;;;;;4155112;28;20424;-70
2021/03/02 09:55:27;;;;;;;15.20;9.32;;;13.30;99.90;;;;;;4153424;28;20041;-70
2021/03/02 09:57:28;;;;;;;14.27;8.55;;;13.40;99.90;;;;;;4147594;28;20046;-70
2021/03/02 09:59:30;;;;;;;14.55;8.57;;;13.50;99.90;;;;;;4156673;28;20036;-70
2021/03/02 10:01:33;;;;;;;15.20;8.43;;;13.50;99.90;;;;;;4155429;28;20072;-70
2021/03/02 10:03:36;;;;;;;12.52;7.82;;;13.60;99.90;;;;;;4158418;28;20041;-70
2021/03/02 10:05:53;;;;;;;14.80;8.48;;;13.50;99.90;;;;;;4157083;28;20037;-70
2021/03/02 10:07:54;;;;;;;15.95;8.40;;;13.60;99.90;;;;;;4156498;28;20080;-70
2021/03/02 10:09:54;;;;;;;15.18;8.27;;;13.70;99.90;;;;;;4155411;28;20033;-70
2021/03/02 10:12:13;;;;;;;13.55;7.35;;;13.70;99.90;;;;;;4156513;28;20041;-70
2021/03/02 10:14:14;;;;;;;16.55;7.78;;;13.70;99.90;;;;;;4157573;28;20111;-70
2021/03/02 10:16:31;;;;;;;12.63;7.82;;;13.70;99.90;;;;;;4150172;28;20421;-70
2021/03/02 10:18:32;;;;;;;14.43;8.50;;;13.80;99.90;;;;;;4148117;28;20041;-70
2021/03/02 10:20:33;;;;;;;12.50;7.55;;;13.80;99.90;;;;;;4158236;28;20053;-70
2021/03/02 10:22:33;;;;;;;14.00;7.97;;;13.80;99.90;;;;;;4157347;28;20017;-70
2021/03/02 10:24:41;;;;;;;16.23;9.05;;;13.80;99.90;;;;;;4158561;28;20068;-67
2021/03/02 10:26:42;;;;;;;12.77;8.13;;;13.90;99.90;;;;;;4152522;28;20104;-68
2021/03/02 10:28:42;;;;;;;10.90;7.30;;;13.90;99.90;;;;;;4134410;28;20026;-68
2021/03/02 10:30:43;;;;;;;14.50;8.40;;;13.90;99.90;;;;;;4155437;28;20036;-68
2021/03/02 10:32:44;;;;;;;16.20;8.10;;;14.00;99.90;;;;;;4157011;28;20113;-67
2021/03/02 10:34:45;;;;;;;15.27;8.60;;;13.90;99.90;;;;;;4157898;28;20108;-69